Elesbao Veloso, Brazil
Current Conditions -  °F | °C
As of 5:00 PM on Wednesday 28 Jan 2015 (Local Time) from SBTE Reporting Station
Few Clouds Few Clouds  
Wind Chill: 97°   Ceiling: Unl
Heat Index: 98°   Visibility: 6mi
Dew Point: 63°   Wind: 6mph
Humidity: 32%   Direction: 190°S
Pressure: 29.74"   Gusts: NA
Location:  6.2°S, 42.14°W
Report Text: SBTE 282000Z 19005KT 9999 FEW030 36/17 Q1007
Loading
Personal Weather Stations






























Interactive Weather Map New forecast layout! Learn more

10-Day Weather Forecast

Advertisements
Track Severe Weather on mobile